This is the latest recevied weather packets stored in our database for station/object LA3SP-1. If no packets are shown the sender has not sent any weather packets the latest 10 day(s).
| Time | Temp. | Humidity | Pressure | Rain* | Wind** | Luminosity | Snow |
|---|---|---|---|---|---|---|---|
| 1778147856 | 5° C | 48% | 1011.5 hPa | 0 mm | - | - | - |
| 1778147255 | 5.56° C | 48% | 1011.3 hPa | 0 mm | - | - | - |
| 1778146653 | 5° C | 49% | 1011.3 hPa | 0 mm | - | - | - |
| 1778145451 | 5° C | 51% | 1011.2 hPa | 0 mm | - | - | - |
| 1778144248 | 5° C | 52% | 1011.1 hPa | 0 mm | - | - | - |
| 1778143045 | 3.89° C | 55% | 1011.1 hPa | 0 mm | - | - | - |
| 1778142443 | 3.33° C | 55% | 1010.8 hPa | 0 mm | - | - | - |
| 1778141842 | 3.33° C | 55% | 1010.8 hPa | 0 mm | - | - | - |
| 1778140640 | 1.67° C | 59% | 1010.6 hPa | 0 mm | - | - | - |
| 1778140038 | 0.56° C | 60% | 1010.6 hPa | 0 mm | - | - | - |
| 1778139437 | 0° C | 62% | 1010.5 hPa | 0 mm | - | - | - |
| 1778138835 | 0° C | 63% | 1010.6 hPa | 0 mm | - | - | - |
| 1778138234 | -0.56° C | 65% | 1010.6 hPa | 0 mm | - | - | - |
| 1778137031 | -1.67° C | 69% | 1010.3 hPa | 0 mm | - | - | - |
| 1778136430 | -2.22° C | 69% | 1010.4 hPa | 0 mm | - | - | - |
| 1778135227 | -3.33° C | 71% | 1010.1 hPa | 0 mm | - | - | - |
| 1778134625 | -3.33° C | 71% | 1010 hPa | 0 mm | - | - | - |
| 1778132822 | -5° C | 73% | 1010 hPa | 0 mm | - | - | - |
| 1778132243 | -5.56° C | 74% | 1010 hPa | 0 mm | - | - | - |
| 1778132220 | -5° C | 74% | 1010 hPa | 0 mm | - | - | - |
| 1778131620 | -5.56° C | 74% | 1010 hPa | 0 mm | - | - | - |
| 1778127409 | -6.11° C | 73% | 1009.5 hPa | 0 mm | - | - | - |
| 1778125004 | -6.11° C | 72% | 1009.5 hPa | 0 mm | - | - | - |
| 1778124402 | -5.56° C | 71% | 1009.4 hPa | 0 mm | - | - | - |
| 1778123199 | -5.56° C | 72% | 1009.3 hPa | 0 mm | - | - | - |
* Rain latest 24 hours (hover to see other rain measurements)
** Current wind speed in m/s (hover to see current wind gust speed)